Terminal Aerodrome Forecast
Issued by NWS North Platte, NE

Home | Current Version | Previous Version | Graphics & Text | Print | Product List | Glossary On
Versions: 1 2 3 4 5 6 7 8 9 10 11 12 13 14 15 16
000
FTUS43 KLBF 310400 AAC
TAFVTN
TAF AMD
KVTN 310436Z 3105/3124 04011KT P6SM OVC014
      TEMPO 3109/3113 P6SM OVC007
     FM311600 14008KT P6SM SKC
     FM311900 16016G25KT P6SM SKC
     FM312300 17018KT P6SM SKC=

USA.gov is the U.S. government's official web portal to all federal, state and local government web resources and services.